createdAt,value
2022-11-15T00:05:36.758Z,2.22
2022-11-15T00:11:13.001Z,2.29
2022-11-15T00:17:00.512Z,2.38
2022-11-15T00:22:49.846Z,2.42
2022-11-15T00:28:37.742Z,2.40
2022-11-15T00:34:25.753Z,2.27
2022-11-15T00:40:15.681Z,2.21
2022-11-15T00:46:04.159Z,2.13
2022-11-15T00:51:51.643Z,1.99
2022-11-15T00:57:41.237Z,2.01
2022-11-15T01:03:30.033Z,1.94
2022-11-15T01:09:18.739Z,1.96
2022-11-15T01:15:09.139Z,1.83
2022-11-15T01:20:56.961Z,1.55
2022-11-15T01:26:44.754Z,1.56
2022-11-15T01:32:34.165Z,1.69
2022-11-15T01:38:21.797Z,1.58
2022-11-15T01:44:40.898Z,1.52
2022-11-15T01:50:34.254Z,1.54
2022-11-15T01:56:25.250Z,1.48
2022-11-15T02:02:14.774Z,1.54
2022-11-15T02:08:04.493Z,1.45
2022-11-15T02:13:53.000Z,1.21
2022-11-15T02:20:07.675Z,1.23
2022-11-15T02:26:21.748Z,1.04
2022-11-15T02:32:18.725Z,0.89
2022-11-15T02:38:12.900Z,0.87
2022-11-15T02:44:04.774Z,1.00
2022-11-15T02:49:56.682Z,1.07
2022-11-15T02:55:48.913Z,0.75
2022-11-15T03:01:47.477Z,0.85
2022-11-15T03:07:43.689Z,0.86
2022-11-15T03:13:40.116Z,0.98
2022-11-15T03:19:35.887Z,0.92
2022-11-15T03:25:28.007Z,0.91
2022-11-15T03:31:36.385Z,1.04
2022-11-15T03:37:29.766Z,0.90
2022-11-15T03:43:27.756Z,0.81
2022-11-15T03:49:22.704Z,0.76
2022-11-15T03:55:13.941Z,0.72
2022-11-15T04:01:03.262Z,0.82
2022-11-15T04:06:51.903Z,0.96
2022-11-15T04:12:43.483Z,1.03
2022-11-15T04:18:33.202Z,1.07
2022-11-15T04:24:20.980Z,1.06
2022-11-15T04:30:10.234Z,0.94
2022-11-15T04:36:16.535Z,0.60
2022-11-15T04:42:03.826Z,0.59
2022-11-15T04:47:51.961Z,0.44
2022-11-15T04:53:41.072Z,0.44
2022-11-15T04:59:28.929Z,0.65
2022-11-15T05:05:16.973Z,0.81
2022-11-15T05:11:06.159Z,0.87
2022-11-15T05:16:54.231Z,1.34
2022-11-15T05:22:41.894Z,2.02
2022-11-15T05:28:31.188Z,1.59
2022-11-15T05:34:19.471Z,1.51
2022-11-15T05:40:08.747Z,3.18
2022-11-15T05:45:59.359Z,4.97
2022-11-15T05:51:49.417Z,6.57
2022-11-15T05:57:38.765Z,8.36
2022-11-15T06:03:28.285Z,8.46
2022-11-15T06:09:16.699Z,9.31
2022-11-15T06:15:05.153Z,9.18
2022-11-15T06:20:54.232Z,7.10
2022-11-15T06:26:41.728Z,7.62
2022-11-15T06:32:31.561Z,9.99
2022-11-15T06:38:21.009Z,10.15
2022-11-15T06:44:08.762Z,9.34
2022-11-15T06:49:56.846Z,8.85
2022-11-15T06:55:45.974Z,7.76
2022-11-15T07:01:33.909Z,7.68
2022-11-15T07:07:21.871Z,8.17
2022-11-15T07:13:11.122Z,7.45
2022-11-15T07:18:59.429Z,6.87
2022-11-15T07:24:46.793Z,7.04
2022-11-15T07:30:38.915Z,6.21
2022-11-15T07:36:28.734Z,6.96
2022-11-15T07:42:34.317Z,5.94
2022-11-15T07:48:23.176Z,5.93
2022-11-15T07:54:10.768Z,6.29
2022-11-15T07:59:58.843Z,6.06
2022-11-15T08:05:52.652Z,7.05
2022-11-15T08:11:40.764Z,6.40
2022-11-15T08:17:28.640Z,5.94
2022-11-15T08:23:18.048Z,6.79
2022-11-15T08:29:05.785Z,6.91
2022-11-15T08:34:53.624Z,8.25
2022-11-15T08:40:43.195Z,8.75
2022-11-15T08:46:30.717Z,9.13
2022-11-15T08:52:18.959Z,10.95
2022-11-15T08:58:08.470Z,11.89
2022-11-15T09:03:56.625Z,10.09
2022-11-15T09:09:44.748Z,10.71
2022-11-15T09:15:34.065Z,11.66
2022-11-15T09:21:21.855Z,10.56
2022-11-15T09:27:09.894Z,9.99
2022-11-15T09:32:59.126Z,10.75
2022-11-15T09:38:46.605Z,9.05
2022-11-15T09:44:50.695Z,8.51
2022-11-15T09:50:47.797Z,8.01
2022-11-15T09:56:20.700Z,9.12
2022-11-15T10:02:05.137Z,9.14
2022-11-15T10:07:46.075Z,9.28
2022-11-15T10:13:19.000Z,8.35
2022-11-15T10:18:58.528Z,8.08
2022-11-15T10:24:30.429Z,10.00
2022-11-15T10:29:59.645Z,10.49
2022-11-15T10:35:30.925Z,10.73
2022-11-15T10:41:09.962Z,9.24
2022-11-15T10:46:47.479Z,8.28
2022-11-15T10:52:20.788Z,8.91
2022-11-15T10:57:54.211Z,8.02
2022-11-15T11:03:31.590Z,8.10
2022-11-15T11:09:02.949Z,7.90
2022-11-15T11:14:35.139Z,7.49
2022-11-15T11:20:12.363Z,8.20
2022-11-15T11:25:50.387Z,8.22
2022-11-15T11:31:32.783Z,8.19
2022-11-15T11:37:07.375Z,8.68
2022-11-15T11:42:46.198Z,8.94
2022-11-15T11:48:29.936Z,8.99
2022-11-15T11:54:05.703Z,8.13
2022-11-15T11:59:41.903Z,8.28
2022-11-15T12:05:18.561Z,7.78
2022-11-15T12:10:54.234Z,8.08
2022-11-15T12:16:28.523Z,8.47
2022-11-15T12:22:03.929Z,8.57
2022-11-15T12:27:38.288Z,8.85
2022-11-15T12:33:07.593Z,8.56
2022-11-15T12:38:58.885Z,7.94
2022-11-15T12:44:57.499Z,7.98
2022-11-15T12:50:59.107Z,7.97
2022-11-15T12:56:29.270Z,7.91
2022-11-15T13:02:02.108Z,7.99
2022-11-15T13:07:58.474Z,8.14
2022-11-15T13:13:47.209Z,8.22
2022-11-15T13:19:16.956Z,7.99
2022-11-15T13:24:45.298Z,7.89
2022-11-15T13:30:23.618Z,7.54
2022-11-15T13:35:56.058Z,7.57
2022-11-15T13:41:26.612Z,7.35
2022-11-15T13:47:06.007Z,7.32
2022-11-15T13:52:37.662Z,7.27
2022-11-15T13:58:07.777Z,7.19
2022-11-15T14:03:48.344Z,6.88
2022-11-15T14:09:34.317Z,6.69
2022-11-15T14:15:20.043Z,6.47
2022-11-15T14:20:50.236Z,6.36
2022-11-15T14:26:30.823Z,6.16
2022-11-15T14:32:13.929Z,6.12
2022-11-15T14:45:47.834Z,6.06
2022-11-15T14:51:19.376Z,6.01
2022-11-15T14:56:48.147Z,5.97
2022-11-15T15:02:21.546Z,5.62
2022-11-15T15:07:50.555Z,5.44
2022-11-15T15:13:21.509Z,5.28
2022-11-15T15:18:52.536Z,5.37
2022-11-15T15:24:20.982Z,5.52
2022-11-15T15:29:50.423Z,5.53
2022-11-15T15:35:20.760Z,5.44
2022-11-15T15:40:51.676Z,5.35
2022-11-15T15:46:22.169Z,5.24
2022-11-15T15:51:52.702Z,5.15
2022-11-15T15:57:21.310Z,5.18
2022-11-15T16:02:51.069Z,4.94
2022-11-15T16:08:23.878Z,4.64
2022-11-15T16:13:53.157Z,4.37
2022-11-15T16:19:22.231Z,4.26
2022-11-15T16:25:17.652Z,4.30
2022-11-15T16:30:46.341Z,4.32
2022-11-15T16:36:26.938Z,4.34
2022-11-15T16:42:00.983Z,4.34
2022-11-15T16:47:30.080Z,4.33
2022-11-15T16:53:00.707Z,4.33
2022-11-15T16:58:31.037Z,4.32
2022-11-15T17:04:12.577Z,4.34
2022-11-15T17:09:43.564Z,4.29
2022-11-15T17:15:14.869Z,4.32
2022-11-15T17:20:44.449Z,4.28
2022-11-15T17:26:29.463Z,4.32
2022-11-15T17:32:01.325Z,4.33
2022-11-15T17:37:30.388Z,4.39
2022-11-15T17:42:59.422Z,4.46
2022-11-15T17:48:32.058Z,4.50
2022-11-15T17:54:01.276Z,4.26
2022-11-15T17:59:30.167Z,4.16
2022-11-15T18:04:59.142Z,4.11
2022-11-15T18:10:23.559Z,4.12
2022-11-15T18:15:55.189Z,4.11
2022-11-15T18:21:22.477Z,4.08
2022-11-15T18:26:46.412Z,4.10
2022-11-15T18:32:17.772Z,4.04
2022-11-15T18:37:42.272Z,3.94
2022-11-15T18:43:05.348Z,3.89
2022-11-15T18:48:30.799Z,3.89
2022-11-15T18:53:56.103Z,3.87
2022-11-15T18:59:19.911Z,3.93
2022-11-15T19:04:44.360Z,4.01
2022-11-15T19:10:12.020Z,4.10
2022-11-15T19:15:41.560Z,4.01
2022-11-15T19:21:14.636Z,4.01
2022-11-15T19:26:46.383Z,4.04
2022-11-15T19:32:10.284Z,4.00
2022-11-15T19:37:36.493Z,4.02
2022-11-15T19:43:01.116Z,3.93
2022-11-15T19:49:07.566Z,3.99
2022-11-15T19:54:32.575Z,4.06
2022-11-15T20:00:00.847Z,4.05
2022-11-15T20:05:29.056Z,4.08
2022-11-15T20:10:54.350Z,4.16
2022-11-15T20:16:24.535Z,4.24
2022-11-15T20:21:49.801Z,4.31
2022-11-15T20:27:14.964Z,4.28
2022-11-15T20:32:52.712Z,4.28
2022-11-15T20:38:25.657Z,4.32
2022-11-15T20:43:50.247Z,4.26
2022-11-15T20:49:29.712Z,4.26
2022-11-15T20:54:55.046Z,4.23
2022-11-15T21:00:22.375Z,4.24
2022-11-15T21:05:50.073Z,4.32
2022-11-15T21:25:29.984Z,4.23
2022-11-15T21:30:55.174Z,4.18
2022-11-15T21:36:18.603Z,4.26
2022-11-15T21:41:43.763Z,4.30
2022-11-15T21:47:07.428Z,4.26
2022-11-15T21:52:30.903Z,4.17
2022-11-15T21:57:56.136Z,4.17
2022-11-15T22:03:25.587Z,4.18
2022-11-15T22:08:51.654Z,4.29
2022-11-15T22:14:17.431Z,4.32
2022-11-15T22:19:52.279Z,4.33
2022-11-15T22:25:16.917Z,4.29
2022-11-15T22:30:47.757Z,4.23
2022-11-15T22:36:16.452Z,4.26
2022-11-15T22:41:40.448Z,4.31
2022-11-15T22:47:11.194Z,4.33
2022-11-15T22:52:36.896Z,4.37
2022-11-15T22:58:07.202Z,4.40
2022-11-15T23:03:32.570Z,4.43
2022-11-15T23:09:01.719Z,4.44
2022-11-15T23:14:29.260Z,4.44
2022-11-15T23:20:01.016Z,4.42
2022-11-15T23:25:35.394Z,4.37
2022-11-15T23:31:24.248Z,4.41
2022-11-15T23:36:49.590Z,4.39
2022-11-15T23:42:20.635Z,4.41
2022-11-15T23:47:49.414Z,4.52
2022-11-15T23:53:20.155Z,4.55
2022-11-15T23:58:50.540Z,4.60
